sensor_id;sensor_type;location;lat;lon;timestamp;P1;durP1;ratioP1;P2;durP2;ratioP2
19111;SDS011;9688;51.906;8.376;2022-08-23T00:02:04;3.00;;;2.20;;
19111;SDS011;9688;51.906;8.376;2022-08-23T00:05:10;2.80;;;2.53;;
19111;SDS011;9688;51.906;8.376;2022-08-23T00:08:15;2.90;;;2.35;;
19111;SDS011;9688;51.906;8.376;2022-08-23T00:11:23;3.55;;;2.47;;
19111;SDS011;9688;51.906;8.376;2022-08-23T00:14:30;6.93;;;2.58;;
19111;SDS011;9688;51.906;8.376;2022-08-23T00:17:38;6.43;;;2.72;;
19111;SDS011;9688;51.906;8.376;2022-08-23T00:20:44;2.92;;;2.72;;
19111;SDS011;9688;51.906;8.376;2022-08-23T00:23:48;3.42;;;2.50;;
19111;SDS011;9688;51.906;8.376;2022-08-23T00:26:55;3.63;;;2.80;;
19111;SDS011;9688;51.906;8.376;2022-08-23T00:30:05;2.97;;;2.75;;
19111;SDS011;9688;51.906;8.376;2022-08-23T00:33:15;3.25;;;2.88;;
19111;SDS011;9688;51.906;8.376;2022-08-23T00:36:20;4.97;;;2.67;;
19111;SDS011;9688;51.906;8.376;2022-08-23T00:39:24;2.80;;;2.60;;
19111;SDS011;9688;51.906;8.376;2022-08-23T00:42:32;6.03;;;2.70;;
19111;SDS011;9688;51.906;8.376;2022-08-23T00:45:59;7.07;;;2.45;;
19111;SDS011;9688;51.906;8.376;2022-08-23T00:49:31;3.72;;;2.53;;
19111;SDS011;9688;51.906;8.376;2022-08-23T00:52:39;6.15;;;2.85;;
19111;SDS011;9688;51.906;8.376;2022-08-23T00:55:51;5.57;;;2.85;;
19111;SDS011;9688;51.906;8.376;2022-08-23T00:59:01;6.40;;;2.58;;
19111;SDS011;9688;51.906;8.376;2022-08-23T01:02:06;5.50;;;2.78;;
19111;SDS011;9688;51.906;8.376;2022-08-23T01:05:13;7.10;;;2.70;;
19111;SDS011;9688;51.906;8.376;2022-08-23T01:08:18;4.30;;;2.40;;
19111;SDS011;9688;51.906;8.376;2022-08-23T01:11:27;4.70;;;2.55;;
19111;SDS011;9688;51.906;8.376;2022-08-23T01:14:36;3.33;;;2.20;;
19111;SDS011;9688;51.906;8.376;2022-08-23T01:17:47;4.83;;;2.30;;
19111;SDS011;9688;51.906;8.376;2022-08-23T01:20:57;2.73;;;2.63;;
19111;SDS011;9688;51.906;8.376;2022-08-23T01:24:11;7.03;;;2.47;;
19111;SDS011;9688;51.906;8.376;2022-08-23T01:27:16;5.37;;;2.50;;
19111;SDS011;9688;51.906;8.376;2022-08-23T01:30:21;3.43;;;2.47;;
19111;SDS011;9688;51.906;8.376;2022-08-23T01:33:29;4.10;;;2.73;;
19111;SDS011;9688;51.906;8.376;2022-08-23T01:36:34;4.30;;;2.57;;
19111;SDS011;9688;51.906;8.376;2022-08-23T01:39:40;5.60;;;2.40;;
19111;SDS011;9688;51.906;8.376;2022-08-23T01:42:51;2.47;;;2.27;;
19111;SDS011;9688;51.906;8.376;2022-08-23T01:45:56;5.83;;;2.50;;
19111;SDS011;9688;51.906;8.376;2022-08-23T01:49:01;3.87;;;2.43;;
19111;SDS011;9688;51.906;8.376;2022-08-23T01:52:07;4.07;;;2.47;;
19111;SDS011;9688;51.906;8.376;2022-08-23T01:55:13;5.13;;;2.67;;
19111;SDS011;9688;51.906;8.376;2022-08-23T01:58:17;5.17;;;2.43;;
19111;SDS011;9688;51.906;8.376;2022-08-23T02:01:24;4.50;;;2.43;;
19111;SDS011;9688;51.906;8.376;2022-08-23T02:04:29;5.07;;;3.00;;
19111;SDS011;9688;51.906;8.376;2022-08-23T02:07:33;4.43;;;2.40;;
19111;SDS011;9688;51.906;8.376;2022-08-23T02:10:39;3.80;;;2.50;;
19111;SDS011;9688;51.906;8.376;2022-08-23T02:13:43;5.32;;;2.40;;
19111;SDS011;9688;51.906;8.376;2022-08-23T02:16:49;3.85;;;2.25;;
19111;SDS011;9688;51.906;8.376;2022-08-23T02:19:55;10.32;;;2.70;;
19111;SDS011;9688;51.906;8.376;2022-08-23T02:23:00;5.23;;;2.30;;
19111;SDS011;9688;51.906;8.376;2022-08-23T02:26:06;3.50;;;2.30;;
19111;SDS011;9688;51.906;8.376;2022-08-23T02:29:11;2.50;;;2.30;;
19111;SDS011;9688;51.906;8.376;2022-08-23T02:32:17;4.30;;;2.50;;
19111;SDS011;9688;51.906;8.376;2022-08-23T02:35:21;3.03;;;2.10;;
19111;SDS011;9688;51.906;8.376;2022-08-23T02:38:27;11.25;;;2.38;;
19111;SDS011;9688;51.906;8.376;2022-08-23T02:41:33;3.13;;;2.27;;
19111;SDS011;9688;51.906;8.376;2022-08-23T02:44:39;2.75;;;2.30;;
19111;SDS011;9688;51.906;8.376;2022-08-23T02:47:44;8.10;;;2.50;;
19111;SDS011;9688;51.906;8.376;2022-08-23T02:50:49;3.07;;;2.30;;
19111;SDS011;9688;51.906;8.376;2022-08-23T02:53:54;3.88;;;2.50;;
19111;SDS011;9688;51.906;8.376;2022-08-23T02:57:01;4.83;;;2.53;;
19111;SDS011;9688;51.906;8.376;2022-08-23T03:00:05;3.23;;;2.47;;
19111;SDS011;9688;51.906;8.376;2022-08-23T03:03:11;5.40;;;2.27;;
19111;SDS011;9688;51.906;8.376;2022-08-23T03:06:16;6.60;;;2.87;;
19111;SDS011;9688;51.906;8.376;2022-08-23T03:09:21;3.17;;;2.40;;
19111;SDS011;9688;51.906;8.376;2022-08-23T03:12:27;5.27;;;2.67;;
19111;SDS011;9688;51.906;8.376;2022-08-23T03:15:31;4.77;;;2.60;;
19111;SDS011;9688;51.906;8.376;2022-08-23T03:18:36;3.67;;;2.30;;
19111;SDS011;9688;51.906;8.376;2022-08-23T03:21:41;4.70;;;2.30;;
19111;SDS011;9688;51.906;8.376;2022-08-23T03:24:45;3.60;;;2.30;;
19111;SDS011;9688;51.906;8.376;2022-08-23T03:27:51;3.07;;;2.30;;
19111;SDS011;9688;51.906;8.376;2022-08-23T03:30:56;6.57;;;2.20;;
19111;SDS011;9688;51.906;8.376;2022-08-23T03:34:01;7.10;;;2.40;;
19111;SDS011;9688;51.906;8.376;2022-08-23T03:37:05;4.73;;;2.50;;
19111;SDS011;9688;51.906;8.376;2022-08-23T03:40:10;3.17;;;2.07;;
19111;SDS011;9688;51.906;8.376;2022-08-23T03:43:19;4.53;;;2.53;;
19111;SDS011;9688;51.906;8.376;2022-08-23T03:46:24;6.23;;;2.60;;
19111;SDS011;9688;51.906;8.376;2022-08-23T03:49:29;4.63;;;2.27;;
19111;SDS011;9688;51.906;8.376;2022-08-23T03:52:33;5.47;;;2.70;;
19111;SDS011;9688;51.906;8.376;2022-08-23T03:55:37;3.57;;;2.50;;
19111;SDS011;9688;51.906;8.376;2022-08-23T03:58:45;4.17;;;2.40;;
19111;SDS011;9688;51.906;8.376;2022-08-23T04:01:49;6.87;;;2.50;;
19111;SDS011;9688;51.906;8.376;2022-08-23T04:04:54;5.23;;;2.43;;
19111;SDS011;9688;51.906;8.376;2022-08-23T04:08:02;6.33;;;2.60;;
19111;SDS011;9688;51.906;8.376;2022-08-23T04:11:11;6.10;;;2.40;;
19111;SDS011;9688;51.906;8.376;2022-08-23T04:14:18;7.03;;;2.40;;
19111;SDS011;9688;51.906;8.376;2022-08-23T04:17:23;2.43;;;2.23;;
19111;SDS011;9688;51.906;8.376;2022-08-23T04:20:28;6.97;;;2.87;;
19111;SDS011;9688;51.906;8.376;2022-08-23T04:23:32;4.27;;;2.33;;
19111;SDS011;9688;51.906;8.376;2022-08-23T04:26:36;11.13;;;2.90;;
19111;SDS011;9688;51.906;8.376;2022-08-23T04:29:43;5.43;;;2.67;;
19111;SDS011;9688;51.906;8.376;2022-08-23T04:32:48;4.13;;;2.57;;
19111;SDS011;9688;51.906;8.376;2022-08-23T04:35:53;7.40;;;3.17;;
19111;SDS011;9688;51.906;8.376;2022-08-23T04:38:59;6.30;;;2.70;;
19111;SDS011;9688;51.906;8.376;2022-08-23T04:42:03;5.77;;;2.53;;
19111;SDS011;9688;51.906;8.376;2022-08-23T04:45:21;5.90;;;2.70;;
19111;SDS011;9688;51.906;8.376;2022-08-23T04:48:26;7.63;;;2.67;;
19111;SDS011;9688;51.906;8.376;2022-08-23T04:51:32;3.93;;;2.80;;
19111;SDS011;9688;51.906;8.376;2022-08-23T04:54:37;6.13;;;2.80;;
19111;SDS011;9688;51.906;8.376;2022-08-23T04:57:42;4.53;;;2.50;;
19111;SDS011;9688;51.906;8.376;2022-08-23T05:00:49;4.20;;;2.40;;
19111;SDS011;9688;51.906;8.376;2022-08-23T05:03:55;4.60;;;2.57;;
19111;SDS011;9688;51.906;8.376;2022-08-23T05:06:59;4.37;;;2.80;;
19111;SDS011;9688;51.906;8.376;2022-08-23T05:10:08;4.33;;;2.70;;
19111;SDS011;9688;51.906;8.376;2022-08-23T05:13:18;7.43;;;2.87;;
19111;SDS011;9688;51.906;8.376;2022-08-23T05:16:24;5.30;;;2.83;;
19111;SDS011;9688;51.906;8.376;2022-08-23T05:19:29;6.03;;;3.03;;
19111;SDS011;9688;51.906;8.376;2022-08-23T05:22:34;2.73;;;2.53;;
19111;SDS011;9688;51.906;8.376;2022-08-23T05:25:40;8.43;;;2.90;;
19111;SDS011;9688;51.906;8.376;2022-08-23T05:28:54;5.53;;;2.10;;
19111;SDS011;9688;51.906;8.376;2022-08-23T05:31:59;4.53;;;2.87;;
19111;SDS011;9688;51.906;8.376;2022-08-23T05:35:05;6.60;;;2.80;;
19111;SDS011;9688;51.906;8.376;2022-08-23T05:38:11;12.50;;;2.70;;
19111;SDS011;9688;51.906;8.376;2022-08-23T05:41:15;3.20;;;2.60;;
19111;SDS011;9688;51.906;8.376;2022-08-23T05:44:21;3.83;;;2.60;;
19111;SDS011;9688;51.906;8.376;2022-08-23T05:47:27;5.60;;;2.50;;
19111;SDS011;9688;51.906;8.376;2022-08-23T05:50:34;6.00;;;2.43;;
19111;SDS011;9688;51.906;8.376;2022-08-23T05:53:39;5.40;;;2.50;;
19111;SDS011;9688;51.906;8.376;2022-08-23T05:56:44;5.43;;;2.40;;
19111;SDS011;9688;51.906;8.376;2022-08-23T05:59:49;3.27;;;2.77;;
19111;SDS011;9688;51.906;8.376;2022-08-23T06:02:54;6.80;;;2.73;;
19111;SDS011;9688;51.906;8.376;2022-08-23T06:06:00;5.70;;;2.47;;
19111;SDS011;9688;51.906;8.376;2022-08-23T06:09:08;5.63;;;2.63;;
19111;SDS011;9688;51.906;8.376;2022-08-23T06:12:14;5.67;;;2.77;;
19111;SDS011;9688;51.906;8.376;2022-08-23T06:15:19;3.85;;;2.70;;
19111;SDS011;9688;51.906;8.376;2022-08-23T06:18:25;4.68;;;2.30;;
19111;SDS011;9688;51.906;8.376;2022-08-23T06:21:30;7.78;;;2.58;;
19111;SDS011;9688;51.906;8.376;2022-08-23T06:24:35;5.05;;;2.55;;
19111;SDS011;9688;51.906;8.376;2022-08-23T06:27:39;3.65;;;2.70;;
19111;SDS011;9688;51.906;8.376;2022-08-23T06:30:45;12.23;;;3.40;;
19111;SDS011;9688;51.906;8.376;2022-08-23T06:33:51;13.30;;;3.45;;
19111;SDS011;9688;51.906;8.376;2022-08-23T06:36:56;5.93;;;2.97;;
19111;SDS011;9688;51.906;8.376;2022-08-23T06:40:04;7.40;;;3.47;;
19111;SDS011;9688;51.906;8.376;2022-08-23T06:43:09;13.02;;;3.45;;
19111;SDS011;9688;51.906;8.376;2022-08-23T06:46:15;11.18;;;3.13;;
19111;SDS011;9688;51.906;8.376;2022-08-23T06:49:23;6.55;;;2.60;;
19111;SDS011;9688;51.906;8.376;2022-08-23T06:52:29;6.78;;;2.58;;
19111;SDS011;9688;51.906;8.376;2022-08-23T06:55:34;6.95;;;2.90;;
19111;SDS011;9688;51.906;8.376;2022-08-23T06:58:38;5.55;;;2.75;;
19111;SDS011;9688;51.906;8.376;2022-08-23T07:01:44;6.70;;;2.55;;
19111;SDS011;9688;51.906;8.376;2022-08-23T07:04:53;5.63;;;2.40;;
19111;SDS011;9688;51.906;8.376;2022-08-23T07:07:58;5.25;;;2.70;;
19111;SDS011;9688;51.906;8.376;2022-08-23T07:11:05;3.60;;;2.38;;
19111;SDS011;9688;51.906;8.376;2022-08-23T07:14:10;3.75;;;2.60;;
19111;SDS011;9688;51.906;8.376;2022-08-23T07:17:16;3.42;;;2.33;;
19111;SDS011;9688;51.906;8.376;2022-08-23T07:20:23;4.88;;;2.72;;
19111;SDS011;9688;51.906;8.376;2022-08-23T07:23:27;7.25;;;2.65;;
19111;SDS011;9688;51.906;8.376;2022-08-23T07:26:33;2.63;;;2.17;;
19111;SDS011;9688;51.906;8.376;2022-08-23T07:29:39;6.68;;;2.70;;
19111;SDS011;9688;51.906;8.376;2022-08-23T07:32:46;5.90;;;2.70;;
19111;SDS011;9688;51.906;8.376;2022-08-23T07:35:51;5.75;;;2.17;;
19111;SDS011;9688;51.906;8.376;2022-08-23T07:38:56;5.53;;;2.70;;
19111;SDS011;9688;51.906;8.376;2022-08-23T07:42:02;5.18;;;2.45;;
19111;SDS011;9688;51.906;8.376;2022-08-23T07:45:08;3.90;;;2.17;;
19111;SDS011;9688;51.906;8.376;2022-08-23T07:48:13;3.83;;;2.25;;
19111;SDS011;9688;51.906;8.376;2022-08-23T07:51:20;5.32;;;2.55;;
19111;SDS011;9688;51.906;8.376;2022-08-23T07:54:25;3.55;;;2.15;;
19111;SDS011;9688;51.906;8.376;2022-08-23T07:57:30;4.45;;;2.10;;
19111;SDS011;9688;51.906;8.376;2022-08-23T08:00:35;2.22;;;2.00;;
19111;SDS011;9688;51.906;8.376;2022-08-23T08:03:40;4.88;;;2.17;;
19111;SDS011;9688;51.906;8.376;2022-08-23T08:06:47;7.13;;;2.55;;
19111;SDS011;9688;51.906;8.376;2022-08-23T08:09:53;3.10;;;2.10;;
19111;SDS011;9688;51.906;8.376;2022-08-23T08:12:58;3.03;;;2.20;;
19111;SDS011;9688;51.906;8.376;2022-08-23T08:16:07;3.65;;;2.30;;
19111;SDS011;9688;51.906;8.376;2022-08-23T08:19:13;6.00;;;2.10;;
19111;SDS011;9688;51.906;8.376;2022-08-23T08:22:19;6.18;;;2.35;;
19111;SDS011;9688;51.906;8.376;2022-08-23T08:25:24;3.65;;;2.38;;
19111;SDS011;9688;51.906;8.376;2022-08-23T08:28:29;2.67;;;2.30;;
19111;SDS011;9688;51.906;8.376;2022-08-23T08:31:36;5.57;;;2.72;;
19111;SDS011;9688;51.906;8.376;2022-08-23T08:34:42;3.47;;;2.20;;
19111;SDS011;9688;51.906;8.376;2022-08-23T08:45:37;4.93;;;2.35;;
19111;SDS011;9688;51.906;8.376;2022-08-23T08:48:50;3.15;;;2.33;;
19111;SDS011;9688;51.906;8.376;2022-08-23T08:52:02;4.70;;;2.47;;
19111;SDS011;9688;51.906;8.376;2022-08-23T08:55:16;5.00;;;2.53;;
19111;SDS011;9688;51.906;8.376;2022-08-23T08:58:29;3.72;;;2.40;;
19111;SDS011;9688;51.906;8.376;2022-08-23T09:01:41;4.90;;;2.72;;
19111;SDS011;9688;51.906;8.376;2022-08-23T09:04:45;4.75;;;2.70;;
19111;SDS011;9688;51.906;8.376;2022-08-23T09:07:54;5.45;;;2.33;;
19111;SDS011;9688;51.906;8.376;2022-08-23T09:11:14;3.63;;;2.33;;
19111;SDS011;9688;51.906;8.376;2022-08-23T09:14:39;2.53;;;2.28;;
19111;SDS011;9688;51.906;8.376;2022-08-23T09:17:54;4.15;;;2.35;;
19111;SDS011;9688;51.906;8.376;2022-08-23T09:21:02;2.78;;;2.28;;
19111;SDS011;9688;51.906;8.376;2022-08-23T09:24:10;3.63;;;2.15;;
19111;SDS011;9688;51.906;8.376;2022-08-23T09:27:17;4.15;;;2.35;;
19111;SDS011;9688;51.906;8.376;2022-08-23T09:30:43;5.45;;;2.30;;
19111;SDS011;9688;51.906;8.376;2022-08-23T09:33:50;2.53;;;2.22;;
19111;SDS011;9688;51.906;8.376;2022-08-23T09:36:56;4.13;;;2.08;;
19111;SDS011;9688;51.906;8.376;2022-08-23T09:40:16;2.25;;;2.00;;
19111;SDS011;9688;51.906;8.376;2022-08-23T09:43:24;2.70;;;2.30;;
19111;SDS011;9688;51.906;8.376;2022-08-23T09:46:34;3.15;;;2.17;;
19111;SDS011;9688;51.906;8.376;2022-08-23T09:49:44;2.88;;;2.38;;
19111;SDS011;9688;51.906;8.376;2022-08-23T09:52:54;2.80;;;2.40;;
19111;SDS011;9688;51.906;8.376;2022-08-23T09:56:14;9.40;;;2.40;;
19111;SDS011;9688;51.906;8.376;2022-08-23T09:59:30;8.07;;;2.55;;
19111;SDS011;9688;51.906;8.376;2022-08-23T10:02:52;5.65;;;2.22;;
19111;SDS011;9688;51.906;8.376;2022-08-23T10:06:27;2.42;;;2.22;;
19111;SDS011;9688;51.906;8.376;2022-08-23T10:09:34;5.68;;;2.28;;
19111;SDS011;9688;51.906;8.376;2022-08-23T10:12:38;4.78;;;2.20;;
19111;SDS011;9688;51.906;8.376;2022-08-23T10:15:51;5.15;;;2.42;;
19111;SDS011;9688;51.906;8.376;2022-08-23T10:19:08;2.38;;;2.13;;
19111;SDS011;9688;51.906;8.376;2022-08-23T10:22:22;5.55;;;2.33;;
19111;SDS011;9688;51.906;8.376;2022-08-23T10:25:32;4.53;;;2.50;;
19111;SDS011;9688;51.906;8.376;2022-08-23T10:28:44;7.00;;;2.55;;
19111;SDS011;9688;51.906;8.376;2022-08-23T10:32:16;2.95;;;2.40;;
19111;SDS011;9688;51.906;8.376;2022-08-23T10:35:31;2.63;;;2.42;;
19111;SDS011;9688;51.906;8.376;2022-08-23T10:38:43;5.72;;;2.30;;
19111;SDS011;9688;51.906;8.376;2022-08-23T10:41:50;4.47;;;2.53;;
19111;SDS011;9688;51.906;8.376;2022-08-23T10:45:08;2.60;;;2.13;;
19111;SDS011;9688;51.906;8.376;2022-08-23T10:48:20;6.18;;;2.40;;
19111;SDS011;9688;51.906;8.376;2022-08-23T10:55:05;4.65;;;2.55;;
19111;SDS011;9688;51.906;8.376;2022-08-23T10:58:38;5.38;;;2.50;;
19111;SDS011;9688;51.906;8.376;2022-08-23T11:01:49;4.28;;;2.40;;
19111;SDS011;9688;51.906;8.376;2022-08-23T11:05:05;5.30;;;3.15;;
19111;SDS011;9688;51.906;8.376;2022-08-23T11:08:31;4.75;;;2.47;;
19111;SDS011;9688;51.906;8.376;2022-08-23T11:11:40;7.95;;;2.67;;
19111;SDS011;9688;51.906;8.376;2022-08-23T11:14:56;3.42;;;2.30;;
19111;SDS011;9688;51.906;8.376;2022-08-23T11:18:09;4.22;;;2.90;;
19111;SDS011;9688;51.906;8.376;2022-08-23T11:24:50;3.55;;;2.38;;
19111;SDS011;9688;51.906;8.376;2022-08-23T11:31:43;2.72;;;2.30;;
19111;SDS011;9688;51.906;8.376;2022-08-23T11:34:56;4.72;;;2.38;;
19111;SDS011;9688;51.906;8.376;2022-08-23T11:38:11;3.70;;;2.20;;
19111;SDS011;9688;51.906;8.376;2022-08-23T11:41:21;6.28;;;2.40;;
19111;SDS011;9688;51.906;8.376;2022-08-23T11:44:33;4.55;;;2.63;;
19111;SDS011;9688;51.906;8.376;2022-08-23T11:47:42;3.60;;;2.50;;
19111;SDS011;9688;51.906;8.376;2022-08-23T11:50:53;4.70;;;2.53;;
19111;SDS011;9688;51.906;8.376;2022-08-23T11:54:13;4.03;;;2.38;;
19111;SDS011;9688;51.906;8.376;2022-08-23T11:57:55;3.60;;;2.20;;
19111;SDS011;9688;51.906;8.376;2022-08-23T12:01:15;4.88;;;2.45;;
19111;SDS011;9688;51.906;8.376;2022-08-23T12:04:33;2.47;;;2.10;;
19111;SDS011;9688;51.906;8.376;2022-08-23T12:07:45;3.85;;;2.38;;
19111;SDS011;9688;51.906;8.376;2022-08-23T12:11:02;2.35;;;1.85;;
19111;SDS011;9688;51.906;8.376;2022-08-23T12:17:55;2.83;;;2.40;;
19111;SDS011;9688;51.906;8.376;2022-08-23T12:21:15;2.30;;;2.10;;
19111;SDS011;9688;51.906;8.376;2022-08-23T12:24:27;2.78;;;2.58;;
19111;SDS011;9688;51.906;8.376;2022-08-23T12:27:35;3.03;;;2.17;;
19111;SDS011;9688;51.906;8.376;2022-08-23T12:30:49;2.45;;;2.20;;
19111;SDS011;9688;51.906;8.376;2022-08-23T12:34:02;4.65;;;2.50;;
19111;SDS011;9688;51.906;8.376;2022-08-23T12:37:21;2.45;;;2.25;;
19111;SDS011;9688;51.906;8.376;2022-08-23T12:40:35;4.10;;;2.35;;
19111;SDS011;9688;51.906;8.376;2022-08-23T12:43:52;3.90;;;2.60;;
19111;SDS011;9688;51.906;8.376;2022-08-23T12:47:09;4.47;;;2.60;;
19111;SDS011;9688;51.906;8.376;2022-08-23T12:50:19;4.70;;;2.60;;
19111;SDS011;9688;51.906;8.376;2022-08-23T12:53:32;4.07;;;2.20;;
19111;SDS011;9688;51.906;8.376;2022-08-23T12:56:37;4.07;;;2.55;;
19111;SDS011;9688;51.906;8.376;2022-08-23T12:59:44;3.15;;;2.70;;
19111;SDS011;9688;51.906;8.376;2022-08-23T13:02:58;3.28;;;2.42;;
19111;SDS011;9688;51.906;8.376;2022-08-23T13:06:05;4.47;;;2.63;;
19111;SDS011;9688;51.906;8.376;2022-08-23T13:09:14;3.40;;;2.45;;
19111;SDS011;9688;51.906;8.376;2022-08-23T13:12:22;5.32;;;2.33;;
19111;SDS011;9688;51.906;8.376;2022-08-23T13:15:44;8.00;;;2.65;;
19111;SDS011;9688;51.906;8.376;2022-08-23T13:18:53;2.63;;;2.42;;
19111;SDS011;9688;51.906;8.376;2022-08-23T13:22:08;6.18;;;2.53;;
19111;SDS011;9688;51.906;8.376;2022-08-23T13:25:23;5.03;;;2.70;;
19111;SDS011;9688;51.906;8.376;2022-08-23T13:28:31;2.92;;;2.53;;
19111;SDS011;9688;51.906;8.376;2022-08-23T13:31:50;3.95;;;2.55;;
19111;SDS011;9688;51.906;8.376;2022-08-23T13:38:36;4.00;;;2.50;;
19111;SDS011;9688;51.906;8.376;2022-08-23T13:41:40;3.40;;;2.63;;
19111;SDS011;9688;51.906;8.376;2022-08-23T13:44:46;3.35;;;2.65;;
19111;SDS011;9688;51.906;8.376;2022-08-23T13:47:54;2.75;;;2.50;;
19111;SDS011;9688;51.906;8.376;2022-08-23T13:51:22;2.80;;;2.58;;
19111;SDS011;9688;51.906;8.376;2022-08-23T13:54:32;3.15;;;2.83;;
19111;SDS011;9688;51.906;8.376;2022-08-23T13:57:40;4.65;;;2.40;;
19111;SDS011;9688;51.906;8.376;2022-08-23T14:00:46;3.97;;;2.88;;
19111;SDS011;9688;51.906;8.376;2022-08-23T14:03:52;3.72;;;2.40;;
19111;SDS011;9688;51.906;8.376;2022-08-23T14:07:01;5.90;;;2.90;;
19111;SDS011;9688;51.906;8.376;2022-08-23T14:10:07;5.20;;;2.83;;
19111;SDS011;9688;51.906;8.376;2022-08-23T14:13:14;5.43;;;3.35;;
19111;SDS011;9688;51.906;8.376;2022-08-23T14:16:24;3.22;;;2.70;;
19111;SDS011;9688;51.906;8.376;2022-08-23T14:19:33;5.25;;;3.28;;
19111;SDS011;9688;51.906;8.376;2022-08-23T14:22:39;5.18;;;2.85;;
19111;SDS011;9688;51.906;8.376;2022-08-23T14:25:44;5.45;;;2.63;;
19111;SDS011;9688;51.906;8.376;2022-08-23T14:28:50;6.72;;;2.70;;
19111;SDS011;9688;51.906;8.376;2022-08-23T14:31:57;2.85;;;2.55;;
19111;SDS011;9688;51.906;8.376;2022-08-23T14:35:03;6.43;;;2.58;;
19111;SDS011;9688;51.906;8.376;2022-08-23T14:38:11;6.03;;;2.75;;
19111;SDS011;9688;51.906;8.376;2022-08-23T14:41:18;2.47;;;2.25;;
19111;SDS011;9688;51.906;8.376;2022-08-23T14:44:26;2.85;;;2.50;;
19111;SDS011;9688;51.906;8.376;2022-08-23T14:47:30;2.60;;;2.38;;
19111;SDS011;9688;51.906;8.376;2022-08-23T14:50:37;3.45;;;2.70;;
19111;SDS011;9688;51.906;8.376;2022-08-23T14:53:44;4.78;;;2.60;;
19111;SDS011;9688;51.906;8.376;2022-08-23T14:56:50;3.30;;;2.80;;
19111;SDS011;9688;51.906;8.376;2022-08-23T15:00:00;10.18;;;2.92;;
19111;SDS011;9688;51.906;8.376;2022-08-23T15:03:16;5.63;;;2.90;;
19111;SDS011;9688;51.906;8.376;2022-08-23T15:06:27;4.13;;;2.67;;
19111;SDS011;9688;51.906;8.376;2022-08-23T15:09:33;3.90;;;2.50;;
19111;SDS011;9688;51.906;8.376;2022-08-23T15:12:38;3.45;;;2.75;;
19111;SDS011;9688;51.906;8.376;2022-08-23T15:15:42;2.75;;;2.58;;
19111;SDS011;9688;51.906;8.376;2022-08-23T15:18:48;4.88;;;2.55;;
19111;SDS011;9688;51.906;8.376;2022-08-23T15:21:54;4.35;;;2.50;;
19111;SDS011;9688;51.906;8.376;2022-08-23T15:25:00;5.15;;;2.50;;
19111;SDS011;9688;51.906;8.376;2022-08-23T15:28:06;4.72;;;3.03;;
19111;SDS011;9688;51.906;8.376;2022-08-23T15:31:13;4.80;;;2.78;;
19111;SDS011;9688;51.906;8.376;2022-08-23T15:34:17;3.10;;;2.80;;
19111;SDS011;9688;51.906;8.376;2022-08-23T15:37:23;4.25;;;3.05;;
19111;SDS011;9688;51.906;8.376;2022-08-23T15:40:30;4.00;;;2.60;;
19111;SDS011;9688;51.906;8.376;2022-08-23T15:43:36;4.75;;;2.53;;
19111;SDS011;9688;51.906;8.376;2022-08-23T15:46:44;4.90;;;3.00;;
19111;SDS011;9688;51.906;8.376;2022-08-23T15:49:50;3.38;;;2.95;;
19111;SDS011;9688;51.906;8.376;2022-08-23T15:52:55;3.13;;;2.35;;
19111;SDS011;9688;51.906;8.376;2022-08-23T15:56:03;4.68;;;2.70;;
19111;SDS011;9688;51.906;8.376;2022-08-23T15:59:15;4.93;;;2.67;;
19111;SDS011;9688;51.906;8.376;2022-08-23T16:02:24;6.45;;;2.47;;
19111;SDS011;9688;51.906;8.376;2022-08-23T16:05:31;3.97;;;2.80;;
19111;SDS011;9688;51.906;8.376;2022-08-23T16:08:36;8.90;;;3.10;;
19111;SDS011;9688;51.906;8.376;2022-08-23T16:11:43;4.43;;;3.03;;
19111;SDS011;9688;51.906;8.376;2022-08-23T16:14:48;4.90;;;2.70;;
19111;SDS011;9688;51.906;8.376;2022-08-23T16:17:52;3.90;;;3.03;;
19111;SDS011;9688;51.906;8.376;2022-08-23T16:20:57;8.07;;;2.55;;
19111;SDS011;9688;51.906;8.376;2022-08-23T16:24:01;2.75;;;2.53;;
19111;SDS011;9688;51.906;8.376;2022-08-23T16:27:08;4.38;;;2.72;;
19111;SDS011;9688;51.906;8.376;2022-08-23T16:30:14;4.20;;;2.70;;
19111;SDS011;9688;51.906;8.376;2022-08-23T16:33:18;3.97;;;2.58;;
19111;SDS011;9688;51.906;8.376;2022-08-23T16:36:24;5.75;;;2.63;;
19111;SDS011;9688;51.906;8.376;2022-08-23T16:39:29;4.75;;;2.75;;
19111;SDS011;9688;51.906;8.376;2022-08-23T16:42:38;2.80;;;2.60;;
19111;SDS011;9688;51.906;8.376;2022-08-23T16:45:43;4.90;;;3.13;;
19111;SDS011;9688;51.906;8.376;2022-08-23T16:48:47;5.00;;;2.60;;
19111;SDS011;9688;51.906;8.376;2022-08-23T16:51:51;3.22;;;2.90;;
19111;SDS011;9688;51.906;8.376;2022-08-23T16:54:56;6.88;;;2.88;;
19111;SDS011;9688;51.906;8.376;2022-08-23T16:58:04;9.32;;;2.95;;
19111;SDS011;9688;51.906;8.376;2022-08-23T17:01:11;8.07;;;2.80;;
19111;SDS011;9688;51.906;8.376;2022-08-23T17:04:16;5.32;;;2.72;;
19111;SDS011;9688;51.906;8.376;2022-08-23T17:07:22;4.57;;;3.60;;
19111;SDS011;9688;51.906;8.376;2022-08-23T17:10:28;6.65;;;2.92;;
19111;SDS011;9688;51.906;8.376;2022-08-23T17:13:35;4.20;;;3.10;;
19111;SDS011;9688;51.906;8.376;2022-08-23T17:16:39;5.25;;;2.92;;
19111;SDS011;9688;51.906;8.376;2022-08-23T17:19:45;5.95;;;3.20;;
19111;SDS011;9688;51.906;8.376;2022-08-23T17:22:51;3.47;;;2.90;;
19111;SDS011;9688;51.906;8.376;2022-08-23T17:25:56;6.07;;;2.97;;
19111;SDS011;9688;51.906;8.376;2022-08-23T17:29:02;4.03;;;2.58;;
19111;SDS011;9688;51.906;8.376;2022-08-23T17:32:07;4.53;;;2.58;;
19111;SDS011;9688;51.906;8.376;2022-08-23T17:35:12;3.60;;;2.88;;
19111;SDS011;9688;51.906;8.376;2022-08-23T17:38:20;7.18;;;2.83;;
19111;SDS011;9688;51.906;8.376;2022-08-23T17:41:25;8.40;;;3.28;;
19111;SDS011;9688;51.906;8.376;2022-08-23T17:44:32;8.63;;;2.92;;
19111;SDS011;9688;51.906;8.376;2022-08-23T17:47:38;6.25;;;2.83;;
19111;SDS011;9688;51.906;8.376;2022-08-23T17:50:43;5.35;;;3.10;;
19111;SDS011;9688;51.906;8.376;2022-08-23T17:53:48;8.50;;;3.45;;
19111;SDS011;9688;51.906;8.376;2022-08-23T17:56:52;5.45;;;3.20;;
19111;SDS011;9688;51.906;8.376;2022-08-23T17:59:59;8.30;;;3.70;;
19111;SDS011;9688;51.906;8.376;2022-08-23T18:03:10;6.65;;;3.58;;
19111;SDS011;9688;51.906;8.376;2022-08-23T18:06:14;9.48;;;3.58;;
19111;SDS011;9688;51.906;8.376;2022-08-23T18:09:19;7.22;;;3.25;;
19111;SDS011;9688;51.906;8.376;2022-08-23T18:12:25;5.93;;;3.15;;
19111;SDS011;9688;51.906;8.376;2022-08-23T18:15:30;6.53;;;3.88;;
19111;SDS011;9688;51.906;8.376;2022-08-23T18:18:35;6.40;;;3.47;;
19111;SDS011;9688;51.906;8.376;2022-08-23T18:21:41;7.65;;;3.40;;
19111;SDS011;9688;51.906;8.376;2022-08-23T18:24:46;3.90;;;3.58;;
19111;SDS011;9688;51.906;8.376;2022-08-23T18:27:52;5.38;;;3.30;;
19111;SDS011;9688;51.906;8.376;2022-08-23T18:31:12;6.07;;;3.85;;
19111;SDS011;9688;51.906;8.376;2022-08-23T18:34:18;8.75;;;5.15;;
19111;SDS011;9688;51.906;8.376;2022-08-23T18:37:22;14.57;;;4.32;;
19111;SDS011;9688;51.906;8.376;2022-08-23T18:40:27;8.00;;;3.95;;
19111;SDS011;9688;51.906;8.376;2022-08-23T18:43:32;10.43;;;4.07;;
19111;SDS011;9688;51.906;8.376;2022-08-23T18:46:39;7.50;;;4.03;;
19111;SDS011;9688;51.906;8.376;2022-08-23T18:49:45;6.32;;;4.38;;
19111;SDS011;9688;51.906;8.376;2022-08-23T18:52:50;7.38;;;3.40;;
19111;SDS011;9688;51.906;8.376;2022-08-23T18:55:55;5.18;;;3.53;;
19111;SDS011;9688;51.906;8.376;2022-08-23T18:59:02;6.82;;;3.22;;
19111;SDS011;9688;51.906;8.376;2022-08-23T19:02:10;7.43;;;2.92;;
19111;SDS011;9688;51.906;8.376;2022-08-23T19:05:16;3.97;;;2.83;;
19111;SDS011;9688;51.906;8.376;2022-08-23T19:08:20;4.30;;;3.22;;
19111;SDS011;9688;51.906;8.376;2022-08-23T19:11:26;5.70;;;3.00;;
19111;SDS011;9688;51.906;8.376;2022-08-23T19:14:32;5.35;;;3.80;;
19111;SDS011;9688;51.906;8.376;2022-08-23T19:17:38;3.72;;;2.45;;
19111;SDS011;9688;51.906;8.376;2022-08-23T19:20:43;4.15;;;2.90;;
19111;SDS011;9688;51.906;8.376;2022-08-23T19:23:49;5.63;;;2.67;;
19111;SDS011;9688;51.906;8.376;2022-08-23T19:26:54;3.20;;;2.70;;
19111;SDS011;9688;51.906;8.376;2022-08-23T19:29:59;6.57;;;2.72;;
19111;SDS011;9688;51.906;8.376;2022-08-23T19:33:07;8.73;;;2.88;;
19111;SDS011;9688;51.906;8.376;2022-08-23T19:36:12;6.47;;;3.00;;